Time;durP1;ratioP1;P1;durP2;ratioP2;P2;SDS_P1;SDS_P2;PMS_P1;PMS_P2;Temp;Humidity;BMP_temperature;BMP_pressure;BME280_temperature;BME280_humidity;BME280_pressure;Samples;Min_cycle;Max_cycle;Signal;HPM_P1;HPM_P2
2023/12/06 17:45:08;;;;;;;18.92;15.80;;;;;;;;;;5181957;23;20059;-80
2023/12/06 17:47:37;;;;;;;17.15;15.48;;;;;;;;;;4917119;28;20039;-80
2023/12/06 17:50:03;;;;;;;16.98;15.20;;;;;;;;;;4932455;29;20059;-80
2023/12/06 17:52:29;;;;;;;13.93;12.77;;;;;;;;;;4940734;29;20035;-79
2023/12/06 17:54:54;;;;;;;16.52;14.95;;;;;;;;;;4960221;28;20119;-79
2023/12/06 17:57:20;;;;;;;16.55;14.73;;;;;;;;;;4929483;29;20110;-79
2023/12/06 17:59:46;;;;;;;16.23;14.52;;;;;;;;;;4946792;28;20047;-80
2023/12/06 18:02:11;;;;;;;16.83;15.25;;;;;;;;;;4917315;29;20073;-79
2023/12/06 18:04:37;;;;;;;14.35;12.90;;;;;;;;;;4923588;29;20059;-79
2023/12/06 18:07:03;;;;;;;16.50;14.85;;;;;;;;;;4925785;29;20051;-79
2023/12/06 18:09:29;;;;;;;15.32;13.95;;;;;;;;;;4923406;29;20635;-79
2023/12/06 18:11:54;;;;;;;17.38;15.60;;;;;;;;;;4922402;28;20113;-79
2023/12/06 18:14:20;;;;;;;17.95;16.05;;;;;;;;;;4925465;29;20042;-81
2023/12/06 18:16:45;;;;;;;15.25;13.85;;;;;;;;;;4920796;29;20042;-80
2023/12/06 18:19:11;;;;;;;14.30;13.00;;;;;;;;;;4941414;29;20031;-79
2023/12/06 18:21:37;;;;;;;14.07;12.77;;;;;;;;;;4922369;28;20043;-80
2023/12/06 18:24:03;;;;;;;13.77;12.63;;;;;;;;;;4909182;29;20051;-80
2023/12/06 18:26:29;;;;;;;12.70;11.65;;;;;;;;;;4938144;29;20042;-80
2023/12/06 18:28:54;;;;;;;13.93;12.77;;;;;;;;;;4937675;28;20031;-80
2023/12/06 18:31:20;;;;;;;13.57;11.80;;;;;;;;;;4924909;29;20043;-80
2023/12/06 18:33:45;;;;;;;14.05;12.68;;;;;;;;;;4919986;28;20042;-80
2023/12/06 18:36:11;;;;;;;13.48;12.27;;;;;;;;;;4941626;29;20043;-79
2023/12/06 18:38:37;;;;;;;13.38;12.27;;;;;;;;;;4928485;29;20090;-80
2023/12/06 18:50:20;;;;;;;14.20;12.93;;;;;;;;;;4941763;28;20047;-79
2023/12/06 18:52:46;;;;;;;13.73;12.52;;;;;;;;;;4954628;28;20050;-79
2023/12/06 18:55:11;;;;;;;13.48;12.35;;;;;;;;;;4946271;29;20501;-79
2023/12/06 18:57:37;;;;;;;15.75;12.98;;;;;;;;;;4928740;28;20043;-79
2023/12/06 19:00:04;;;;;;;13.32;12.00;;;;;;;;;;4916831;28;20639;-78
2023/12/06 19:02:34;;;;;;;15.82;14.30;;;;;;;;;;4960044;28;20030;-80
2023/12/06 19:05:00;;;;;;;;;;;;;;;;;;4927090;28;20058;-78
2023/12/06 19:07:26;;;;;;;13.25;12.05;;;;;;;;;;4956684;29;20124;-79
2023/12/06 19:09:51;;;;;;;13.93;12.75;;;;;;;;;;4926347;28;20058;-79
2023/12/06 19:12:20;;;;;;;12.80;11.82;;;;;;;;;;4927434;29;20063;-78
2023/12/06 19:14:45;;;;;;;13.02;11.93;;;;;;;;;;4941227;28;20043;-78
2023/12/06 19:17:11;;;;;;;13.95;12.57;;;;;;;;;;4918052;29;20439;-79
2023/12/06 19:19:37;;;;;;;14.30;12.85;;;;;;;;;;4954165;28;20023;-79
2023/12/06 19:22:04;;;;;;;14.38;12.98;;;;;;;;;;4924294;29;20796;-79
2023/12/06 19:24:29;;;;;;;12.43;11.43;;;;;;;;;;4911729;29;20292;-79
2023/12/06 19:26:55;;;;;;;12.85;11.85;;;;;;;;;;4922883;28;20051;-79
2023/12/06 19:29:22;;;;;;;15.07;13.63;;;;;;;;;;4940715;29;20556;-79
2023/12/06 19:31:47;;;;;;;15.65;14.20;;;;;;;;;;4934617;28;20043;-78
2023/12/06 19:34:13;;;;;;;14.18;12.88;;;;;;;;;;4913591;29;20070;-79
2023/12/06 19:36:39;;;;;;;12.88;11.77;;;;;;;;;;4935536;28;20046;-79
2023/12/06 19:39:04;;;;;;;15.15;13.13;;;;;;;;;;4905742;29;20047;-79
2023/12/06 19:41:31;;;;;;;15.50;13.95;;;;;;;;;;4924173;29;20520;-79
2023/12/06 19:43:57;;;;;;;15.00;13.30;;;;;;;;;;4900606;29;20254;-79
2023/12/06 19:46:23;;;;;;;16.70;14.80;;;;;;;;;;4879018;29;20043;-79
2023/12/06 19:48:49;;;;;;;18.63;16.63;;;;;;;;;;4901144;29;20066;-79
2023/12/06 19:51:15;;;;;;;17.13;15.15;;;;;;;;;;4911932;29;20044;-77
2023/12/06 19:53:41;;;;;;;19.95;15.98;;;;;;;;;;4894806;29;20067;-78
2023/12/06 19:56:09;;;;;;;17.13;15.48;;;;;;;;;;4898374;29;20215;-77
2023/12/06 19:58:36;;;;;;;17.25;15.68;;;;;;;;;;4912073;29;20119;-79
2023/12/06 20:01:04;;;;;;;14.00;12.63;;;;;;;;;;4894205;29;20035;-78
2023/12/06 20:03:30;;;;;;;18.60;15.85;;;;;;;;;;4923438;29;20107;-78
2023/12/06 20:05:56;;;;;;;14.45;13.18;;;;;;;;;;4908914;29;20043;-79
2023/12/06 20:08:25;;;;;;;14.50;13.13;;;;;;;;;;4879424;29;20043;-79
2023/12/06 20:10:52;;;;;;;15.02;13.65;;;;;;;;;;4876159;29;20039;-79
2023/12/06 20:13:19;;;;;;;12.63;11.43;;;;;;;;;;4927141;29;20175;-79
2023/12/06 20:15:44;;;;;;;14.95;13.40;;;;;;;;;;4908328;29;20051;-79
2023/12/06 20:18:11;;;;;;;15.50;14.00;;;;;;;;;;4897142;29;20267;-79
2023/12/06 20:20:37;;;;;;;16.00;13.65;;;;;;;;;;4878176;29;20453;-79
2023/12/06 20:23:03;;;;;;;15.15;13.40;;;;;;;;;;4913076;29;20065;-79
2023/12/06 20:25:30;;;;;;;15.88;14.27;;;;;;;;;;4897993;29;20036;-79
2023/12/06 20:27:57;;;;;;;15.52;13.90;;;;;;;;;;4923263;29;20043;-79
2023/12/06 20:30:23;;;;;;;16.70;14.05;;;;;;;;;;4907881;29;20043;-78
2023/12/06 20:32:50;;;;;;;16.02;14.50;;;;;;;;;;4889027;29;20039;-78
2023/12/06 20:35:17;;;;;;;16.77;14.60;;;;;;;;;;4892913;29;20059;-79
2023/12/06 20:37:44;;;;;;;16.08;14.43;;;;;;;;;;4904854;29;20514;-79
2023/12/06 20:40:11;;;;;;;16.45;14.95;;;;;;;;;;4910201;29;20036;-78
2023/12/06 20:43:17;;;;;;;16.67;15.07;;;;;;;;;;4904743;29;20056;-79
2023/12/06 20:50:03;;;;;;;16.83;15.07;;;;;;;;;;4929471;29;20152;-79
2023/12/06 20:52:30;;;;;;;14.32;13.02;;;;;;;;;;4901007;29;20047;-79
2023/12/06 20:54:57;;;;;;;16.73;13.43;;;;;;;;;;4927657;29;20126;-79
2023/12/06 20:57:23;;;;;;;15.52;14.02;;;;;;;;;;4917186;29;20130;-79
2023/12/06 20:59:48;;;;;;;13.98;12.68;;;;;;;;;;4895117;29;20055;-79
2023/12/06 21:02:15;;;;;;;14.07;12.70;;;;;;;;;;4916918;29;20054;-79
2023/12/06 21:04:43;;;;;;;13.77;12.48;;;;;;;;;;4912131;29;20043;-79
2023/12/06 21:07:09;;;;;;;13.98;12.57;;;;;;;;;;4930633;29;20043;-78
2023/12/06 21:09:36;;;;;;;15.73;14.15;;;;;;;;;;4898800;29;20107;-79
2023/12/06 21:12:02;;;;;;;17.70;15.80;;;;;;;;;;4912358;29;20961;-79
2023/12/06 21:14:28;;;;;;;14.68;13.18;;;;;;;;;;4894660;29;20050;-78
2023/12/06 21:16:55;;;;;;;16.13;14.43;;;;;;;;;;4893558;29;20088;-79
2023/12/06 21:19:21;;;;;;;15.55;14.05;;;;;;;;;;4912306;29;20574;-79
2023/12/06 21:21:51;;;;;;;16.73;13.73;;;;;;;;;;4894853;29;20139;-79
2023/12/06 21:24:19;;;;;;;15.85;14.25;;;;;;;;;;4909447;29;20110;-79
2023/12/06 21:26:45;;;;;;;17.92;14.45;;;;;;;;;;4910221;29;20087;-80
2023/12/06 21:29:11;;;;;;;14.98;13.55;;;;;;;;;;4896171;29;20088;-79
2023/12/06 21:31:38;;;;;;;16.77;13.85;;;;;;;;;;4930463;29;21153;-79
2023/12/06 21:34:04;;;;;;;15.32;13.93;;;;;;;;;;4909766;29;20398;-79
2023/12/06 21:36:29;;;;;;;15.75;14.20;;;;;;;;;;4896830;29;20054;-79
2023/12/06 21:38:55;;;;;;;17.48;13.85;;;;;;;;;;4913095;29;20047;-78
2023/12/06 21:41:21;;;;;;;17.77;14.93;;;;;;;;;;4913700;29;20027;-79
2023/12/06 21:43:46;;;;;;;15.90;14.05;;;;;;;;;;4892915;29;20039;-79
2023/12/06 21:46:15;;;;;;;16.60;14.90;;;;;;;;;;4915462;29;20082;-79
2023/12/06 21:48:42;;;;;;;15.27;13.73;;;;;;;;;;4928824;29;20778;-78
2023/12/06 21:51:17;;;;;;;19.48;12.23;;;;;;;;;;4910422;29;20039;-79
2023/12/06 21:53:43;;;;;;;15.82;13.52;;;;;;;;;;4910790;29;20078;-79
2023/12/06 21:56:09;;;;;;;17.08;14.40;;;;;;;;;;4897746;29;20076;-79
2023/12/06 21:58:35;;;;;;;16.10;13.18;;;;;;;;;;4879912;29;20735;-79
2023/12/06 22:01:00;;;;;;;15.32;13.73;;;;;;;;;;4905260;29;20058;-79
2023/12/06 22:03:26;;;;;;;17.02;13.80;;;;;;;;;;4897441;29;20039;-79
2023/12/06 22:05:52;;;;;;;16.13;13.27;;;;;;;;;;4916764;29;20050;-79
2023/12/06 22:08:18;;;;;;;15.65;14.07;;;;;;;;;;4884074;29;20126;-79
2023/12/06 22:10:43;;;;;;;15.88;14.10;;;;;;;;;;4896585;29;20032;-80
2023/12/06 22:13:09;;;;;;;15.70;14.00;;;;;;;;;;4909919;29;20039;-78
2023/12/06 22:15:35;;;;;;;17.00;14.38;;;;;;;;;;4883589;29;20044;-78
2023/12/06 22:18:00;;;;;;;15.70;13.68;;;;;;;;;;4879856;29;20051;-79
2023/12/06 22:20:26;;;;;;;14.43;12.45;;;;;;;;;;4899074;29;20071;-79
2023/12/06 22:22:52;;;;;;;18.85;13.93;;;;;;;;;;4898824;29;20040;-79
2023/12/06 22:25:17;;;;;;;16.20;13.73;;;;;;;;;;4900475;29;20066;-79
2023/12/06 22:27:43;;;;;;;15.25;13.57;;;;;;;;;;4920798;29;20055;-80
2023/12/06 22:30:09;;;;;;;16.00;14.40;;;;;;;;;;4921556;29;20050;-79
2023/12/06 22:32:34;;;;;;;17.08;14.98;;;;;;;;;;4886612;29;20512;-80
2023/12/06 22:35:00;;;;;;;18.85;14.85;;;;;;;;;;4889347;29;20038;-79
2023/12/06 22:37:26;;;;;;;22.13;16.55;;;;;;;;;;4915292;29;20068;-80
2023/12/06 22:39:51;;;;;;;22.05;17.00;;;;;;;;;;4910775;29;20035;-80
2023/12/06 22:42:17;;;;;;;22.98;17.67;;;;;;;;;;4931215;29;20071;-81
2023/12/06 22:44:42;;;;;;;25.60;17.15;;;;;;;;;;4927166;29;20418;-79
2023/12/06 22:47:09;;;;;;;30.65;19.80;;;;;;;;;;4898789;29;20509;-80
2023/12/06 22:49:35;;;;;;;32.50;20.17;;;;;;;;;;4935132;29;20044;-79
2023/12/06 22:52:02;;;;;;;29.80;19.08;;;;;;;;;;4899842;29;20113;-79
2023/12/06 22:54:28;;;;;;;21.80;16.30;;;;;;;;;;4906905;29;20391;-77
2023/12/06 22:56:53;;;;;;;17.40;15.50;;;;;;;;;;4891251;29;20126;-79
2023/12/06 22:59:19;;;;;;;31.55;17.38;;;;;;;;;;4905171;29;20076;-79
2023/12/06 23:01:45;;;;;;;30.92;17.75;;;;;;;;;;4932603;29;20098;-79
2023/12/06 23:04:10;;;;;;;33.78;21.33;;;;;;;;;;4919990;29;20039;-79
2023/12/06 23:06:36;;;;;;;28.30;19.13;;;;;;;;;;4935205;29;20483;-79
2023/12/06 23:09:02;;;;;;;31.77;18.45;;;;;;;;;;4900541;29;20070;-79
2023/12/06 23:11:27;;;;;;;23.13;16.08;;;;;;;;;;4887514;29;20060;-79
2023/12/06 23:13:53;;;;;;;22.00;15.70;;;;;;;;;;4916821;29;20409;-79
2023/12/06 23:16:23;;;;;;;16.48;14.80;;;;;;;;;;4919537;29;20052;-78
2023/12/06 23:18:49;;;;;;;16.40;14.50;;;;;;;;;;4902432;29;20051;-79
2023/12/06 23:21:15;;;;;;;18.65;14.60;;;;;;;;;;4934116;29;20116;-79
2023/12/06 23:23:40;;;;;;;18.85;16.15;;;;;;;;;;4934150;29;20060;-79
2023/12/06 23:26:06;;;;;;;22.92;16.17;;;;;;;;;;4918968;29;20047;-80
2023/12/06 23:28:31;;;;;;;18.90;15.77;;;;;;;;;;4915760;29;20104;-79
2023/12/06 23:30:57;;;;;;;20.48;15.80;;;;;;;;;;4916199;29;20066;-79
2023/12/06 23:33:23;;;;;;;30.15;19.38;;;;;;;;;;4900097;29;20055;-78
2023/12/06 23:35:48;;;;;;;51.05;26.65;;;;;;;;;;4917389;29;20118;-79
2023/12/06 23:38:14;;;;;;;52.67;26.05;;;;;;;;;;4906965;29;20050;-78
2023/12/06 23:40:39;;;;;;;19.90;15.88;;;;;;;;;;4917573;29;20039;-79
2023/12/06 23:43:05;;;;;;;20.77;16.75;;;;;;;;;;4883250;29;20032;-79
2023/12/06 23:45:31;;;;;;;25.33;18.10;;;;;;;;;;4915291;29;20032;-78
2023/12/06 23:47:56;;;;;;;53.50;27.42;;;;;;;;;;4914905;29;20047;-80
2023/12/06 23:50:22;;;;;;;24.52;18.42;;;;;;;;;;4920384;29;20162;-79
2023/12/06 23:52:48;;;;;;;22.60;16.77;;;;;;;;;;4900919;29;20076;-79
2023/12/06 23:55:13;;;;;;;16.95;15.00;;;;;;;;;;4914529;29;20066;-79
2023/12/06 23:57:39;;;;;;;19.00;15.07;;;;;;;;;;4902542;29;20040;-79
